Weather at R & K Skyranch Airport

Public forecast

Using degrees Fahrenheit for public forecast. Weather courtesy of forecast.io.

Closest aviation weather report (METAR) to R & K Skyranch Airport

Closest report is Chehalis Centralia Airport, 10.4 nm (19.2 km) SSE.

2024/07/16 18:55 (retrieved 18 minutes ago)

KCLS 161855Z AUTO VRB05KT 10SM CLR 27/15 A2999 RMK AO2

Closest aviation forecast (TAF) to R & K Skyranch Airport

Closest forecast is Olympia Regional Airport, 11.3 nm (20.9 km) NE.

2024/07/16 18:34 (retrieved 39 minutes ago)

TAF KOLM 161732Z 1618/1718 03008KT P6SM SKC FM170900 20004KT P6SM BKN150 TEMPO 1712/1715 OVC010